Terminal Aerodrome Forecast
Issued by NWS

Home | Current Version | Previous Version | Text Only | Print | Product List | Glossary On
Versions: 1 2 3 4 5 6 7 8 9 10 11 12 13 14 15 16 17
571
FTUS41 KBTV 252320
TAFRUT
TAF
KRUT 252320Z 2600/2624 16004KT P6SM VCSH SCT080 OVC140
     FM260500 15005KT P6SM SCT130
     FM261400 29008KT P6SM SCT080
      AMD LTD TO CLD VIS AND WIND=

USA.gov is the U.S. government's official web portal to all federal, state and local government web resources and services.